map of PUJ home
PUJ - Airport
Location
City:  Punta Cana, La Altagracia, Dominican Republic
Near (Alt.):Higüey
Name:Punta Cana International Airport
ICAO:MDPC
IATA:PUJ

Details
Type:Airport (Aerodrome, Airfield)
Use:International (customs port of entry)
Latitude:18°34'03"N (18.567367)
Longitude:68°21'48"W (-68.363430)
Datum:WGS 1984
Elevation:47 ft (14 m)
Variation:12.18°W (WMM2015 magnetic declination)
-0.06° annual change
Runways:1
Longest:10171 × 157 ft (3100 × 48 m), paved

Time
Time Zone:UTC-4
Local Time:

Weather
METAR:MDPC 150000Z 03004KT 9999 FEW020 25/22 Q1017

Related Locations
Nearby:
Farthest:BWB: 12150 mi / 19554 km
Barrow Island, WA, AU

Find:

   beyond  
but within

Other Information
Maps:
NOTAMs:
Links:
Sources:

  
flag of Dominican Republic   

Sectional Chart

Flight Planning
at skyvector.com

Satellite Image

Google Maps Satellite view

 

Copyright © 2004-2017 Karl L. Swartz. All rights reserved.
The Great Circle Mapper name and logo are trademarks of the Great Circle Mapper.
All other trademarks mentioned herein belong to their respective owners.
Please see credits for attibutions and further copyright information.

  Follow gcmap on Facebook Follow gcmap on Twitter Follow gcmap on Google+ GCmap on LinkedIn

hCard Microformat

Geo Microformat